Europa — PDZS — position and weather

sailwx.info

Track history (hours):
 
Tides and Currents Weather Stations Pressure Air Temp Water Temp Dewpoint Dewpoint Depression Visibility Wind Speed Wind Dir Waves Ship Positions

Europa (Netherlands)

60 meter steel-hulled bark; cruises worldwide. Rounded Cape Horn 2002. Accepts paying voyage crew (trainees) for short or long trip segments, including an annual voyage to Antarctica and nearby islands. For bookings see http://www.barkeuropa.com/ or phone +31 (0)10 281 0990, fax +31 (0)10 281 0991.

Ship's website: http://www.barkeuropa.com/

Last reported at 2017-Jun-25 12:00 UTC. Time now 2017-Jun-27 10:24 UTC.
Position N 45°00' W 061°06'.

Length 56 m; beam 8 m.

Type: Sailing vessel. MMSI: 246198000.

Wind from 240 at 14 knots

Barometer 1007.5 mb
Air temperature 10.9 ° C
Visibility: greater than 0.3 NM
Dewpoint 9.3 ° C
Water temperature 9.0 ° C

Date/timePositionNaut miles runAvg speedWind from/ knotsBaromVisibWave heightAir tempDewpointWater temp
2017-Jun-25 12:00N 45°00' W 061°06'112 6.2 240 / 141007.5 0.3 10.9 9.3 9.0
2017-Jun-24 18:00N 44°00' W 063°18'47 7.8 210 / 251002.5 0.1 14.214.011.2
2017-Jun-24 12:00N 43°42' W 064°18'7412.3 210 / 241003.5 14.014.011.5
2017-Jun-24 06:00N 43°18' W 065°54'122 6.8 200 / 261006.1 0.3 11.610.9 9.2
2017-Jun-23 12:00N 42°48' W 068°36'36 6.0 180 / 151010.5 5.4 15.013.313.5
2017-Jun-23 06:00N 42°42' W 069°24'18 5.5 210 / 141012.0 5.4 17.515.316.5
2017-Jun-23 02:49N 42°45' W 069°48'2 5.4
2017-Jun-23 02:27N 42°45' W 069°50'3 5.3
2017-Jun-23 01:57N 42°44' W 069°54'5 6.6
2017-Jun-23 01:12N 42°44' W 070°01'2 5.9
2017-Jun-23 00:51N 42°44' W 070°03'2 5.2
2017-Jun-23 00:30N 42°44' W 070°06'3 5.8
2017-Jun-23 00:00N 42°43' W 070°10'3272.4
2017-Jun-23 00:00N 42°42' W 070°06'611.7 190 / 151011.4 5.4 17.913.316.6
2017-Jun-22 23:31N 42°43' W 070°14'3 6.9
2017-Jun-22 23:01N 42°41' W 070°18'3 6.4
2017-Jun-22 22:31N 42°40' W 070°22'3 6.7
2017-Jun-22 22:01N 42°39' W 070°26'1 2.8
2017-Jun-22 21:31N 42°38' W 070°28'2 4.1
2017-Jun-22 21:00N 42°36' W 070°29'3 5.6
2017-Jun-22 20:31N 42°34' W 070°31'3 5.8
2017-Jun-22 20:01N 42°32' W 070°34'3 6.6
2017-Jun-22 19:30N 42°31' W 070°38'4 7.4
2017-Jun-22 19:00N 42°29' W 070°43'4 7.8
2017-Jun-22 18:31N 42°27' W 070°47'3 6.8
2017-Jun-22 18:00N 42°26' W 070°51'2 4.7
2017-Jun-22 17:30N 42°24' W 070°53'3 5.8
2017-Jun-22 17:01N 42°21' W 070°56'3 6.7
2017-Jun-22 16:31N 42°20' W 070°60'3 5.4
2017-Jun-22 16:00N 42°21' W 071°03'0 0.3
2017-Jun-22 15:28N 42°21' W 071°03'0 0.0
2017-Jun-22 14:59N 42°21' W 071°03'0 0.0
2017-Jun-22 14:00N 42°21' W 071°03'0 0.0
2017-Jun-22 13:30N 42°21' W 071°03'0 0.0
2017-Jun-22 12:58N 42°21' W 071°03'0 0.0
2017-Jun-22 12:26N 42°21' W 071°03'0 0.0
2017-Jun-22 12:00N 42°21' W 071°03'0 0.0
2017-Jun-22 11:26N 42°21' W 071°03'0 0.0
2017-Jun-22 10:56N 42°21' W 071°03'0 0.0
2017-Jun-22 10:26N 42°21' W 071°03'0 0.0
2017-Jun-22 09:59N 42°21' W 071°03'0 0.0
2017-Jun-22 09:29N 42°21' W 071°03'0 0.0
2017-Jun-22 09:00N 42°21' W 071°03'0 0.0
2017-Jun-22 08:30N 42°21' W 071°03'0 0.0
2017-Jun-22 08:00N 42°21' W 071°03'0 0.0
2017-Jun-22 07:27N 42°21' W 071°03'0 0.0
2017-Jun-22 07:00N 42°21' W 071°03'0 0.0
2017-Jun-22 06:28N 42°21' W 071°03'0 0.0
2017-Jun-22 05:57N 42°21' W 071°03'0 0.0
2017-Jun-22 05:26N 42°21' W 071°03'0 0.0
2017-Jun-22 04:57N 42°21' W 071°03'0 0.0
2017-Jun-22 04:25N 42°21' W 071°03'0 0.0
2017-Jun-22 04:00N 42°21' W 071°03'0 0.0
2017-Jun-22 03:28N 42°21' W 071°03'0 0.0
2017-Jun-22 02:58N 42°21' W 071°03'0 0.0
2017-Jun-22 02:28N 42°21' W 071°03'0 0.0
2017-Jun-22 01:57N 42°21' W 071°03'0 0.0
2017-Jun-22 01:04N 42°21' W 071°03'0 0.1
2017-Jun-22 01:01N 42°21' W 071°03'0 0.0
2017-Jun-22 00:24N 42°21' W 071°03'0 0.0
2017-Jun-21 23:51N 42°21' W 071°03'0 0.0
2017-Jun-21 23:30N 42°21' W 071°03'0 0.0
2017-Jun-21 22:58N 42°21' W 071°03'0 0.0
2017-Jun-21 22:31N 42°21' W 071°03'0 0.0
2017-Jun-21 21:59N 42°21' W 071°03'0 0.0
2017-Jun-21 21:29N 42°21' W 071°03'0 0.0
2017-Jun-21 20:59N 42°21' W 071°03'0 0.0
2017-Jun-21 20:27N 42°21' W 071°03'0 0.0
2017-Jun-21 19:59N 42°21' W 071°03'0 0.0
2017-Jun-21 19:29N 42°21' W 071°03'0 0.0
2017-Jun-21 18:58N 42°21' W 071°03'0 0.0
2017-Jun-21 18:24N 42°21' W 071°03'0 0.0
2017-Jun-21 18:00N 42°21' W 071°03'0 0.0
2017-Jun-21 17:30N 42°21' W 071°03'0 0.0
2017-Jun-21 16:54N 42°21' W 071°03'0 0.0
2017-Jun-21 16:30N 42°21' W 071°03'0 0.0
2017-Jun-21 15:58N 42°21' W 071°03'0 0.0
2017-Jun-21 15:29N 42°21' W 071°03'0 0.0
2017-Jun-21 15:00N 42°21' W 071°03'0 0.0
2017-Jun-21 14:30N 42°21' W 071°03'0 0.0
2017-Jun-21 13:28N 42°21' W 071°03'0 0.0
2017-Jun-21 13:00N 42°21' W 071°03'0 0.0
2017-Jun-21 12:30N 42°21' W 071°03'0 0.0
2017-Jun-21 12:00N 42°21' W 071°03'0 0.0
2017-Jun-21 11:30N 42°21' W 071°03'0 0.0
2017-Jun-21 11:00N 42°21' W 071°03'0 0.0
2017-Jun-21 10:18N 42°21' W 071°03'0 0.0
2017-Jun-21 09:58N 42°21' W 071°03'0 0.0
2017-Jun-21 09:30N 42°21' W 071°03'0 0.0
2017-Jun-21 08:59N 42°21' W 071°03'0 0.0
2017-Jun-21 08:28N 42°21' W 071°03'0 0.0
2017-Jun-21 07:58N 42°21' W 071°03'0 0.0
2017-Jun-21 07:25N 42°21' W 071°03'0 0.0
2017-Jun-21 06:56N 42°21' W 071°03'0 0.0
2017-Jun-21 06:30N 42°21' W 071°03'0 0.0
2017-Jun-21 05:55N 42°21' W 071°03'0 0.0
2017-Jun-21 05:30N 42°21' W 071°03'0 0.0
2017-Jun-21 04:59N 42°21' W 071°03'0 0.0
2017-Jun-21 04:28N 42°21' W 071°03'0 0.0
2017-Jun-21 03:57N 42°21' W 071°03'0 0.0
2017-Jun-21 03:25N 42°21' W 071°03'0 0.0
2017-Jun-21 03:00N 42°21' W 071°03'0 0.0
2017-Jun-21 02:28N 42°21' W 071°03'0 0.0
2017-Jun-21 01:59N 42°21' W 071°03'0 0.0
2017-Jun-21 01:27N 42°21' W 071°03'0 0.0
2017-Jun-21 01:00N 42°21' W 071°03'0 0.0
2017-Jun-21 00:31N 42°21' W 071°03'0 0.0
2017-Jun-20 23:58N 42°21' W 071°03'0 0.0
2017-Jun-20 23:29N 42°21' W 071°03'0 0.0
2017-Jun-20 22:57N 42°21' W 071°03'0 0.0
2017-Jun-20 22:30N 42°21' W 071°03'0 0.0
2017-Jun-20 22:00N 42°21' W 071°03'0 0.0
2017-Jun-20 21:29N 42°21' W 071°03'0 0.0
2017-Jun-20 20:59N 42°21' W 071°03'0 0.0
2017-Jun-20 20:28N 42°21' W 071°03'0 0.0
2017-Jun-20 19:57N 42°21' W 071°03'0 0.0
2017-Jun-20 19:28N 42°21' W 071°03'0 0.0
2017-Jun-20 19:00N 42°21' W 071°03'0 0.0
2017-Jun-20 18:30N 42°21' W 071°03'0 0.0
2017-Jun-20 17:58N 42°21' W 071°03'0 0.0
2017-Jun-20 17:28N 42°21' W 071°03'0 0.0
2017-Jun-20 16:59N 42°21' W 071°03'0 0.0
2017-Jun-20 16:29N 42°21' W 071°03'0 0.0
2017-Jun-20 15:57N 42°21' W 071°03'0 0.0
2017-Jun-20 15:29N 42°21' W 071°03'0 0.0
2017-Jun-20 14:56N 42°21' W 071°03'0 0.0
2017-Jun-20 14:00N 42°21' W 071°03'0 0.0
2017-Jun-20 13:31N 42°21' W 071°03'0 0.0
2017-Jun-20 13:01N 42°21' W 071°03'0 0.0
2017-Jun-20 12:30N 42°21' W 071°03'0 0.0
2017-Jun-20 11:57N 42°21' W 071°03'0 0.0
2017-Jun-20 11:29N 42°21' W 071°03'0 0.0
2017-Jun-20 10:57N 42°21' W 071°03'0 0.0
2017-Jun-20 10:30N 42°21' W 071°03'0 0.0
2017-Jun-20 09:56N 42°21' W 071°03'0 0.0
2017-Jun-20 09:26N 42°21' W 071°03'0 0.0
2017-Jun-20 08:52N 42°21' W 071°03'0 0.0
2017-Jun-20 08:31N 42°21' W 071°03'0 0.0
2017-Jun-20 08:00N 42°21' W 071°03'0 0.0
2017-Jun-20 07:30N 42°21' W 071°03'0 0.0
2017-Jun-20 06:58N 42°21' W 071°03'0 0.0
2017-Jun-20 06:30N 42°21' W 071°03'0 0.0
2017-Jun-20 05:59N 42°21' W 071°03'0 0.0
2017-Jun-20 05:30N 42°21' W 071°03'0 0.0
2017-Jun-20 05:00N 42°21' W 071°03'0 0.0
2017-Jun-20 04:31N 42°21' W 071°03'0 0.0
2017-Jun-20 03:58N 42°21' W 071°03'0 0.0
2017-Jun-20 03:28N 42°21' W 071°03'0 0.0
2017-Jun-20 02:59N 42°21' W 071°03'0 0.0
2017-Jun-20 02:31N 42°21' W 071°03'0 0.0
2017-Jun-20 01:55N 42°21' W 071°03'0 0.0
2017-Jun-20 01:29N 42°21' W 071°03'0 0.0
2017-Jun-20 00:59N 42°21' W 071°03'0 0.0
2017-Jun-20 00:28N 42°21' W 071°03'0 0.0
2017-Jun-19 23:57N 42°21' W 071°03'0 0.0
2017-Jun-19 23:30N 42°21' W 071°03'0 0.0
2017-Jun-19 23:00N 42°21' W 071°03'0 0.0
2017-Jun-19 22:23N 42°21' W 071°03'0 0.0
2017-Jun-19 21:58N 42°21' W 071°03'0 0.0
2017-Jun-19 21:27N 42°21' W 071°03'0 0.0
2017-Jun-19 20:57N 42°21' W 071°03'0 0.0
2017-Jun-19 20:25N 42°21' W 071°03'0 0.0
2017-Jun-19 19:55N 42°21' W 071°03'0 0.0
2017-Jun-19 19:28N 42°21' W 071°03'0 0.0
2017-Jun-19 18:57N 42°21' W 071°03'0 0.0
2017-Jun-19 18:25N 42°21' W 071°03'0 0.0
2017-Jun-19 18:01N 42°21' W 071°03'0 0.0
2017-Jun-19 17:30N 42°21' W 071°03'0 0.0
2017-Jun-19 16:56N 42°21' W 071°03'0 0.0
2017-Jun-19 16:29N 42°21' W 071°03'0 0.0
2017-Jun-19 15:59N 42°21' W 071°03'0 0.0
2017-Jun-19 15:27N 42°21' W 071°03'0 0.0
2017-Jun-19 14:55N 42°21' W 071°03'0 0.0
2017-Jun-19 13:23N 42°21' W 071°03'0 0.0
2017-Jun-19 12:50N 42°21' W 071°03'0 0.0
2017-Jun-19 12:30N 42°21' W 071°03'0 0.0
2017-Jun-19 11:57N 42°21' W 071°03'0 0.0
2017-Jun-19 11:30N 42°21' W 071°03'0 0.0
2017-Jun-19 10:59N 42°21' W 071°03'0 0.0
2017-Jun-19 10:25N 42°21' W 071°03'0 0.0
2017-Jun-19 09:58N 42°21' W 071°03'0 0.0
2017-Jun-19 09:28N 42°21' W 071°03'0 0.0
2017-Jun-19 08:58N 42°21' W 071°03'0 0.0
2017-Jun-19 08:30N 42°21' W 071°03'0 0.0
2017-Jun-19 07:59N 42°21' W 071°03'0 0.0
2017-Jun-19 07:29N 42°21' W 071°03'0 0.0
2017-Jun-19 06:59N 42°21' W 071°03'0 0.0
2017-Jun-19 06:30N 42°21' W 071°03'0 0.0
2017-Jun-19 05:58N 42°21' W 071°03'0 0.0
2017-Jun-19 05:29N 42°21' W 071°03'0 0.0
2017-Jun-19 04:59N 42°21' W 071°03'0 0.0
2017-Jun-19 04:29N 42°21' W 071°03'0 0.0
2017-Jun-19 03:58N 42°21' W 071°03'0 0.0
2017-Jun-19 03:30N 42°21' W 071°03'0 0.0
2017-Jun-19 02:58N 42°21' W 071°03'0 0.0
2017-Jun-19 02:28N 42°21' W 071°03'0 0.0
2017-Jun-19 02:00N 42°21' W 071°03'0 0.0
2017-Jun-19 01:30N 42°21' W 071°03'0 0.0
2017-Jun-19 00:56N 42°21' W 071°03'0 0.0
2017-Jun-19 00:25N 42°21' W 071°03'0 0.0
2017-Jun-18 23:58N 42°21' W 071°03'0 0.0
2017-Jun-18 23:23N 42°21' W 071°03'0 0.0
2017-Jun-18 22:59N 42°21' W 071°03'0 0.0
2017-Jun-18 22:30N 42°21' W 071°03'0 0.0
2017-Jun-18 21:54N 42°21' W 071°03'0 0.0
2017-Jun-18 21:30N 42°21' W 071°03'0 0.0
2017-Jun-18 20:57N 42°21' W 071°03'0 0.0
2017-Jun-18 20:30N 42°21' W 071°03'0 0.0
2017-Jun-18 19:59N 42°21' W 071°03'0 0.0
2017-Jun-18 19:20N 42°21' W 071°03'0 0.0
2017-Jun-18 19:00N 42°21' W 071°03'0 0.0
2017-Jun-18 18:26N 42°21' W 071°03'0 0.0
2017-Jun-18 18:00N 42°21' W 071°03'0 0.0
2017-Jun-18 17:27N 42°21' W 071°03'0 0.0
2017-Jun-18 16:58N 42°21' W 071°03'0 0.0
2017-Jun-18 16:27N 42°21' W 071°03'0 0.0
2017-Jun-18 15:53N 42°21' W 071°03'0 0.0
2017-Jun-18 15:29N 42°21' W 071°03'0 0.0
2017-Jun-18 14:59N 42°21' W 071°03'0 0.0
2017-Jun-18 13:59N 42°21' W 071°03'0 0.0
2017-Jun-18 13:20N 42°21' W 071°03'0 0.0
2017-Jun-18 13:00N 42°21' W 071°03'0 0.0
2017-Jun-18 12:30N 42°21' W 071°03'0 0.0
2017-Jun-18 12:00N 42°21' W 071°03'0 0.0
2017-Jun-18 11:30N 42°21' W 071°03'0 0.0
2017-Jun-18 11:00N 42°21' W 071°03'0 0.0
2017-Jun-18 10:29N 42°21' W 071°03'0 0.0
2017-Jun-18 09:57N 42°21' W 071°03'0 0.0
2017-Jun-18 09:30N 42°21' W 071°03'0 0.0
2017-Jun-18 09:00N 42°21' W 071°03'0 0.0
2017-Jun-18 08:26N 42°21' W 071°03'0 0.0
2017-Jun-18 07:59N 42°21' W 071°03'0 0.0
2017-Jun-18 07:29N 42°21' W 071°03'0 0.0
2017-Jun-18 07:00N 42°21' W 071°03'0 0.0
2017-Jun-18 06:26N 42°21' W 071°03'0 0.0
2017-Jun-18 05:57N 42°21' W 071°03'0 0.0
2017-Jun-18 05:27N 42°21' W 071°03'0 0.0
2017-Jun-18 04:57N 42°21' W 071°03'0 0.0
2017-Jun-18 04:27N 42°21' W 071°03'0 0.0
2017-Jun-18 03:57N 42°21' W 071°03'0 0.0
2017-Jun-18 03:27N 42°21' W 071°03'0 0.0
2017-Jun-18 02:57N 42°21' W 071°03'0 0.0
2017-Jun-18 02:29N 42°21' W 071°03'0 0.0
2017-Jun-18 01:59N 42°21' W 071°03'0 0.0
2017-Jun-18 01:23N 42°21' W 071°03'0 0.0
2017-Jun-18 00:43N 42°21' W 071°03'0 0.1
2017-Jun-18 00:26N 42°21' W 071°03'0 0.0
2017-Jun-17 23:55N 42°21' W 071°03'0 0.0
2017-Jun-17 23:27N 42°21' W 071°03'0 0.0
2017-Jun-17 22:57N 42°21' W 071°03'0 0.0
2017-Jun-17 22:19N 42°21' W 071°03'0 0.0
2017-Jun-17 21:55N 42°21' W 071°03'0 0.0
2017-Jun-17 21:30N 42°21' W 071°03'0 0.0
2017-Jun-17 21:00N 42°21' W 071°03'0 0.0
2017-Jun-17 20:30N 42°21' W 071°03'0 0.0
2017-Jun-17 20:01N 42°21' W 071°03'0 0.0
2017-Jun-17 19:30N 42°21' W 071°03'0 0.0
2017-Jun-17 19:00N 42°21' W 071°03'0 0.0
2017-Jun-17 18:30N 42°21' W 071°03'0 0.0
2017-Jun-17 18:00N 42°21' W 071°03'0 0.0
2017-Jun-17 17:30N 42°21' W 071°03'0 0.1
2017-Jun-17 17:01N 42°21' W 071°03'1 1.6
2017-Jun-17 16:30N 42°22' W 071°03'2 4.1
2017-Jun-17 16:00N 42°21' W 071°01'3 5.4
2017-Jun-17 15:31N 42°20' W 070°57'3 5.6
2017-Jun-17 15:01N 42°22' W 070°55'2 3.3
2017-Jun-17 14:30N 42°24' W 070°53'1 1.5
2017-Jun-17 13:30N 42°25' W 070°53'0 0.1
2017-Jun-17 12:59N 42°25' W 070°53'0 0.0
2017-Jun-17 12:26N 42°25' W 070°53'0 0.0
2017-Jun-17 11:58N 42°25' W 070°53'0 0.0
2017-Jun-17 11:21N 42°25' W 070°53'0 0.0
2017-Jun-17 10:58N 42°25' W 070°53'0 0.0
2017-Jun-17 10:28N 42°25' W 070°53'0 0.0
2017-Jun-17 10:00N 42°25' W 070°53'0 0.0
2017-Jun-17 09:28N 42°25' W 070°53'0 0.0
2017-Jun-17 08:58N 42°25' W 070°53'0 0.0
2017-Jun-17 08:28N 42°25' W 070°53'0 0.0
2017-Jun-17 08:00N 42°25' W 070°53'0 0.0
2017-Jun-17 07:30N 42°25' W 070°53'0 0.0
2017-Jun-17 07:00N 42°25' W 070°53'0 0.0
2017-Jun-17 06:28N 42°25' W 070°53'0 0.0
2017-Jun-17 05:54N 42°25' W 070°53'0 0.0
2017-Jun-17 05:23N 42°25' W 070°53'0 0.0
2017-Jun-17 04:59N 42°25' W 070°53'0 0.0
2017-Jun-17 04:17N 42°25' W 070°53'0 0.0
2017-Jun-17 03:53N 42°25' W 070°53'0 0.0
2017-Jun-17 03:29N 42°25' W 070°53'0 0.0
2017-Jun-17 02:59N 42°25' W 070°53'0 0.0
2017-Jun-17 02:29N 42°25' W 070°53'0 0.0
2017-Jun-17 02:00N 42°25' W 070°53'0 0.0
2017-Jun-17 01:29N 42°25' W 070°53'0 0.0
2017-Jun-17 00:58N 42°25' W 070°53'0 0.0
2017-Jun-17 00:30N 42°25' W 070°53'0 0.0
2017-Jun-16 23:54N 42°25' W 070°53'0 0.0
2017-Jun-16 23:30N 42°25' W 070°53'0 0.0
2017-Jun-16 22:58N 42°25' W 070°53'0 0.0
2017-Jun-16 22:26N 42°25' W 070°53'0 0.0
2017-Jun-16 21:55N 42°25' W 070°53'0 0.0
2017-Jun-16 21:28N 42°25' W 070°53'0 0.0
2017-Jun-16 20:55N 42°25' W 070°53'0 0.0
2017-Jun-16 20:30N 42°25' W 070°53'0 0.0
2017-Jun-16 20:00N 42°25' W 070°53'0 0.0
2017-Jun-16 19:29N 42°25' W 070°53'0 0.0
2017-Jun-16 18:59N 42°25' W 070°53'0 0.0
2017-Jun-16 18:28N 42°25' W 070°53'0 0.0
2017-Jun-16 18:00N 42°25' W 070°53'0 0.0
2017-Jun-16 17:28N 42°25' W 070°53'0 0.0
2017-Jun-16 17:00N 42°25' W 070°53'0 0.0
2017-Jun-16 16:29N 42°25' W 070°53'0 0.0
2017-Jun-16 14:43N 42°25' W 070°53'0 0.0
2017-Jun-16 14:26N 42°25' W 070°53'0 0.0
2017-Jun-16 13:23N 42°25' W 070°53'0 0.0
2017-Jun-16 12:58N 42°25' W 070°53'0 0.0
2017-Jun-16 12:30N 42°25' W 070°53'0 0.0
2017-Jun-16 12:00N 42°25' W 070°53'0 0.0
2017-Jun-16 11:28N 42°25' W 070°53'0 0.0
2017-Jun-16 10:50N 42°25' W 070°53'0 0.0
2017-Jun-16 10:25N 42°25' W 070°53'0 0.0
2017-Jun-16 09:56N 42°25' W 070°53'0 0.0
2017-Jun-16 09:28N 42°25' W 070°53'0 0.0
2017-Jun-16 08:58N 42°25' W 070°53'0 0.0
2017-Jun-16 08:28N 42°25' W 070°53'0 0.0
2017-Jun-16 07:59N 42°25' W 070°53'0 0.0
2017-Jun-16 07:29N 42°25' W 070°53'0 0.0
2017-Jun-16 07:00N 42°25' W 070°53'0 0.0
2017-Jun-16 06:30N 42°25' W 070°53'0 0.0
2017-Jun-16 05:59N 42°25' W 070°53'0 0.0
2017-Jun-16 05:24N 42°25' W 070°53'0 0.0
2017-Jun-16 04:58N 42°25' W 070°53'0 0.0
2017-Jun-16 04:15N 42°25' W 070°53'0 0.0
2017-Jun-16 04:00N 42°25' W 070°53'0 0.0
2017-Jun-16 03:27N 42°25' W 070°53'0 0.0
2017-Jun-16 02:58N 42°25' W 070°53'0 0.1
2017-Jun-16 02:30N 42°25' W 070°52'1 1.4
2017-Jun-16 02:00N 42°25' W 070°52'2 4.8
2017-Jun-16 01:30N 42°23' W 070°49'3 6.0
2017-Jun-16 01:00N 42°21' W 070°47'3 6.3
2017-Jun-16 00:30N 42°19' W 070°43'4 7.4
2017-Jun-16 00:00N 42°16' W 070°40'3 6.6
2017-Jun-15 23:31N 42°14' W 070°36'3 6.6
2017-Jun-15 23:00N 42°12' W 070°33'3 6.1
2017-Jun-15 22:31N 42°10' W 070°30'3 6.3
2017-Jun-15 22:00N 42°08' W 070°27'7 5.6
2017-Jun-15 20:47N 42°04' W 070°19'1 3.7
2017-Jun-15 20:30N 42°03' W 070°18'10 1.1
2017-Jun-15 12:00N 42°00' W 070°06'   1016.5 5.4 18.011.217.5
Track history (hours):
 
Tides and Currents Weather Stations Pressure Air Temp Water Temp Dewpoint Dewpoint Depression Visibility Wind Speed Wind Dir Waves Ship Positions

Europa (Netherlands)

60 meter steel-hulled bark; cruises worldwide. Rounded Cape Horn 2002. Accepts paying voyage crew (trainees) for short or long trip segments, including an annual voyage to Antarctica and nearby islands. For bookings see http://www.barkeuropa.com/ or phone +31 (0)10 281 0990, fax +31 (0)10 281 0991.

Ship's website: http://www.barkeuropa.com/

Last reported at 2017-Jun-25 12:00 UTC. Time now 2017-Jun-27 10:24 UTC.
Position N 45°00' W 061°06'.

Length 56 m; beam 8 m.

Type: Sailing vessel. MMSI: 246198000.

Wind from 240 at 14 knots

Barometer 1007.5 mb
Air temperature 10.9 ° C
Visibility: greater than 0.3 NM
Dewpoint 9.3 ° C
Water temperature 9.0 ° C

Date/timePositionNaut miles runAvg speedWind from/ knotsBaromVisibWave heightAir tempDewpointWater temp
2017-Jun-25 12:00N 45°00' W 061°06'112 6.2 240 / 141007.5 0.3 10.9 9.3 9.0
2017-Jun-24 18:00N 44°00' W 063°18'47 7.8 210 / 251002.5 0.1 14.214.011.2
2017-Jun-24 12:00N 43°42' W 064°18'7412.3 210 / 241003.5 14.014.011.5
2017-Jun-24 06:00N 43°18' W 065°54'122 6.8 200 / 261006.1 0.3 11.610.9 9.2
2017-Jun-23 12:00N 42°48' W 068°36'36 6.0 180 / 151010.5 5.4 15.013.313.5
2017-Jun-23 06:00N 42°42' W 069°24'18 5.5 210 / 141012.0 5.4 17.515.316.5
2017-Jun-23 02:49N 42°45' W 069°48'2 5.4
2017-Jun-23 02:27N 42°45' W 069°50'3 5.3
2017-Jun-23 01:57N 42°44' W 069°54'5 6.6
2017-Jun-23 01:12N 42°44' W 070°01'2 5.9
2017-Jun-23 00:51N 42°44' W 070°03'2 5.2
2017-Jun-23 00:30N 42°44' W 070°06'3 5.8
2017-Jun-23 00:00N 42°43' W 070°10'3272.4
2017-Jun-23 00:00N 42°42' W 070°06'611.7 190 / 151011.4 5.4 17.913.316.6
2017-Jun-22 23:31N 42°43' W 070°14'3 6.9
2017-Jun-22 23:01N 42°41' W 070°18'3 6.4
2017-Jun-22 22:31N 42°40' W 070°22'3 6.7
2017-Jun-22 22:01N 42°39' W 070°26'1 2.8
2017-Jun-22 21:31N 42°38' W 070°28'2 4.1
2017-Jun-22 21:00N 42°36' W 070°29'3 5.6
2017-Jun-22 20:31N 42°34' W 070°31'3 5.8
2017-Jun-22 20:01N 42°32' W 070°34'3 6.6
2017-Jun-22 19:30N 42°31' W 070°38'4 7.4
2017-Jun-22 19:00N 42°29' W 070°43'4 7.8
2017-Jun-22 18:31N 42°27' W 070°47'3 6.8
2017-Jun-22 18:00N 42°26' W 070°51'2 4.7
2017-Jun-22 17:30N 42°24' W 070°53'3 5.8
2017-Jun-22 17:01N 42°21' W 070°56'3 6.7
2017-Jun-22 16:31N 42°20' W 070°60'3 5.4
2017-Jun-22 16:00N 42°21' W 071°03'0 0.3
2017-Jun-22 15:28N 42°21' W 071°03'0 0.0
2017-Jun-22 14:59N 42°21' W 071°03'0 0.0
2017-Jun-22 14:00N 42°21' W 071°03'0 0.0
2017-Jun-22 13:30N 42°21' W 071°03'0 0.0
2017-Jun-22 12:58N 42°21' W 071°03'0 0.0
2017-Jun-22 12:26N 42°21' W 071°03'0 0.0
2017-Jun-22 12:00N 42°21' W 071°03'0 0.0
2017-Jun-22 11:26N 42°21' W 071°03'0 0.0
2017-Jun-22 10:56N 42°21' W 071°03'0 0.0
2017-Jun-22 10:26N 42°21' W 071°03'0 0.0
2017-Jun-22 09:59N 42°21' W 071°03'0 0.0
2017-Jun-22 09:29N 42°21' W 071°03'0 0.0
2017-Jun-22 09:00N 42°21' W 071°03'0 0.0
2017-Jun-22 08:30N 42°21' W 071°03'0 0.0
2017-Jun-22 08:00N 42°21' W 071°03'0 0.0
2017-Jun-22 07:27N 42°21' W 071°03'0 0.0
2017-Jun-22 07:00N 42°21' W 071°03'0 0.0
2017-Jun-22 06:28N 42°21' W 071°03'0 0.0
2017-Jun-22 05:57N 42°21' W 071°03'0 0.0
2017-Jun-22 05:26N 42°21' W 071°03'0 0.0
2017-Jun-22 04:57N 42°21' W 071°03'0 0.0
2017-Jun-22 04:25N 42°21' W 071°03'0 0.0
2017-Jun-22 04:00N 42°21' W 071°03'0 0.0
2017-Jun-22 03:28N 42°21' W 071°03'0 0.0
2017-Jun-22 02:58N 42°21' W 071°03'0 0.0
2017-Jun-22 02:28N 42°21' W 071°03'0 0.0
2017-Jun-22 01:57N 42°21' W 071°03'0 0.0
2017-Jun-22 01:04N 42°21' W 071°03'0 0.1
2017-Jun-22 01:01N 42°21' W 071°03'0 0.0
2017-Jun-22 00:24N 42°21' W 071°03'0 0.0
2017-Jun-21 23:51N 42°21' W 071°03'0 0.0
2017-Jun-21 23:30N 42°21' W 071°03'0 0.0
2017-Jun-21 22:58N 42°21' W 071°03'0 0.0
2017-Jun-21 22:31N 42°21' W 071°03'0 0.0
2017-Jun-21 21:59N 42°21' W 071°03'0 0.0
2017-Jun-21 21:29N 42°21' W 071°03'0 0.0
2017-Jun-21 20:59N 42°21' W 071°03'0 0.0
2017-Jun-21 20:27N 42°21' W 071°03'0 0.0
2017-Jun-21 19:59N 42°21' W 071°03'0 0.0
2017-Jun-21 19:29N 42°21' W 071°03'0 0.0
2017-Jun-21 18:58N 42°21' W 071°03'0 0.0
2017-Jun-21 18:24N 42°21' W 071°03'0 0.0
2017-Jun-21 18:00N 42°21' W 071°03'0 0.0
2017-Jun-21 17:30N 42°21' W 071°03'0 0.0
2017-Jun-21 16:54N 42°21' W 071°03'0 0.0
2017-Jun-21 16:30N 42°21' W 071°03'0 0.0
2017-Jun-21 15:58N 42°21' W 071°03'0 0.0
2017-Jun-21 15:29N 42°21' W 071°03'0 0.0
2017-Jun-21 15:00N 42°21' W 071°03'0 0.0
2017-Jun-21 14:30N 42°21' W 071°03'0 0.0
2017-Jun-21 13:28N 42°21' W 071°03'0 0.0
2017-Jun-21 13:00N 42°21' W 071°03'0 0.0
2017-Jun-21 12:30N 42°21' W 071°03'0 0.0
2017-Jun-21 12:00N 42°21' W 071°03'0 0.0
2017-Jun-21 11:30N 42°21' W 071°03'0 0.0
2017-Jun-21 11:00N 42°21' W 071°03'0 0.0
2017-Jun-21 10:18N 42°21' W 071°03'0 0.0
2017-Jun-21 09:58N 42°21' W 071°03'0 0.0
2017-Jun-21 09:30N 42°21' W 071°03'0 0.0
2017-Jun-21 08:59N 42°21' W 071°03'0 0.0
2017-Jun-21 08:28N 42°21' W 071°03'0 0.0
2017-Jun-21 07:58N 42°21' W 071°03'0 0.0
2017-Jun-21 07:25N 42°21' W 071°03'0 0.0
2017-Jun-21 06:56N 42°21' W 071°03'0 0.0
2017-Jun-21 06:30N 42°21' W 071°03'0 0.0
2017-Jun-21 05:55N 42°21' W 071°03'0 0.0
2017-Jun-21 05:30N 42°21' W 071°03'0 0.0
2017-Jun-21 04:59N 42°21' W 071°03'0 0.0
2017-Jun-21 04:28N 42°21' W 071°03'0 0.0
2017-Jun-21 03:57N 42°21' W 071°03'0 0.0
2017-Jun-21 03:25N 42°21' W 071°03'0 0.0
2017-Jun-21 03:00N 42°21' W 071°03'0 0.0
2017-Jun-21 02:28N 42°21' W 071°03'0 0.0
2017-Jun-21 01:59N 42°21' W 071°03'0 0.0
2017-Jun-21 01:27N 42°21' W 071°03'0 0.0
2017-Jun-21 01:00N 42°21' W 071°03'0 0.0
2017-Jun-21 00:31N 42°21' W 071°03'0 0.0
2017-Jun-20 23:58N 42°21' W 071°03'0 0.0
2017-Jun-20 23:29N 42°21' W 071°03'0 0.0
2017-Jun-20 22:57N 42°21' W 071°03'0 0.0
2017-Jun-20 22:30N 42°21' W 071°03'0 0.0
2017-Jun-20 22:00N 42°21' W 071°03'0 0.0
2017-Jun-20 21:29N 42°21' W 071°03'0 0.0
2017-Jun-20 20:59N 42°21' W 071°03'0 0.0
2017-Jun-20 20:28N 42°21' W 071°03'0 0.0
2017-Jun-20 19:57N 42°21' W 071°03'0 0.0
2017-Jun-20 19:28N 42°21' W 071°03'0 0.0
2017-Jun-20 19:00N 42°21' W 071°03'0 0.0
2017-Jun-20 18:30N 42°21' W 071°03'0 0.0
2017-Jun-20 17:58N 42°21' W 071°03'0 0.0
2017-Jun-20 17:28N 42°21' W 071°03'0 0.0
2017-Jun-20 16:59N 42°21' W 071°03'0 0.0
2017-Jun-20 16:29N 42°21' W 071°03'0 0.0
2017-Jun-20 15:57N 42°21' W 071°03'0 0.0
2017-Jun-20 15:29N 42°21' W 071°03'0 0.0
2017-Jun-20 14:56N 42°21' W 071°03'0 0.0
2017-Jun-20 14:00N 42°21' W 071°03'0 0.0
2017-Jun-20 13:31N 42°21' W 071°03'0 0.0
2017-Jun-20 13:01N 42°21' W 071°03'0 0.0
2017-Jun-20 12:30N 42°21' W 071°03'0 0.0
2017-Jun-20 11:57N 42°21' W 071°03'0 0.0
2017-Jun-20 11:29N 42°21' W 071°03'0 0.0
2017-Jun-20 10:57N 42°21' W 071°03'0 0.0
2017-Jun-20 10:30N 42°21' W 071°03'0 0.0
2017-Jun-20 09:56N 42°21' W 071°03'0 0.0
2017-Jun-20 09:26N 42°21' W 071°03'0 0.0
2017-Jun-20 08:52N 42°21' W 071°03'0 0.0
2017-Jun-20 08:31N 42°21' W 071°03'0 0.0
2017-Jun-20 08:00N 42°21' W 071°03'0 0.0
2017-Jun-20 07:30N 42°21' W 071°03'0 0.0
2017-Jun-20 06:58N 42°21' W 071°03'0 0.0
2017-Jun-20 06:30N 42°21' W 071°03'0 0.0
2017-Jun-20 05:59N 42°21' W 071°03'0 0.0
2017-Jun-20 05:30N 42°21' W 071°03'0 0.0
2017-Jun-20 05:00N 42°21' W 071°03'0 0.0
2017-Jun-20 04:31N 42°21' W 071°03'0 0.0
2017-Jun-20 03:58N 42°21' W 071°03'0 0.0
2017-Jun-20 03:28N 42°21' W 071°03'0 0.0
2017-Jun-20 02:59N 42°21' W 071°03'0 0.0
2017-Jun-20 02:31N 42°21' W 071°03'0 0.0
2017-Jun-20 01:55N 42°21' W 071°03'0 0.0
2017-Jun-20 01:29N 42°21' W 071°03'0 0.0
2017-Jun-20 00:59N 42°21' W 071°03'0 0.0
2017-Jun-20 00:28N 42°21' W 071°03'0 0.0
2017-Jun-19 23:57N 42°21' W 071°03'0 0.0
2017-Jun-19 23:30N 42°21' W 071°03'0 0.0
2017-Jun-19 23:00N 42°21' W 071°03'0 0.0
2017-Jun-19 22:23N 42°21' W 071°03'0 0.0
2017-Jun-19 21:58N 42°21' W 071°03'0 0.0
2017-Jun-19 21:27N 42°21' W 071°03'0 0.0
2017-Jun-19 20:57N 42°21' W 071°03'0 0.0
2017-Jun-19 20:25N 42°21' W 071°03'0 0.0
2017-Jun-19 19:55N 42°21' W 071°03'0 0.0
2017-Jun-19 19:28N 42°21' W 071°03'0 0.0
2017-Jun-19 18:57N 42°21' W 071°03'0 0.0
2017-Jun-19 18:25N 42°21' W 071°03'0 0.0
2017-Jun-19 18:01N 42°21' W 071°03'0 0.0
2017-Jun-19 17:30N 42°21' W 071°03'0 0.0
2017-Jun-19 16:56N 42°21' W 071°03'0 0.0
2017-Jun-19 16:29N 42°21' W 071°03'0 0.0
2017-Jun-19 15:59N 42°21' W 071°03'0 0.0
2017-Jun-19 15:27N 42°21' W 071°03'0 0.0
2017-Jun-19 14:55N 42°21' W 071°03'0 0.0
2017-Jun-19 13:23N 42°21' W 071°03'0 0.0
2017-Jun-19 12:50N 42°21' W 071°03'0 0.0
2017-Jun-19 12:30N 42°21' W 071°03'0 0.0
2017-Jun-19 11:57N 42°21' W 071°03'0 0.0
2017-Jun-19 11:30N 42°21' W 071°03'0 0.0
2017-Jun-19 10:59N 42°21' W 071°03'0 0.0
2017-Jun-19 10:25N 42°21' W 071°03'0 0.0
2017-Jun-19 09:58N 42°21' W 071°03'0 0.0
2017-Jun-19 09:28N 42°21' W 071°03'0 0.0
2017-Jun-19 08:58N 42°21' W 071°03'0 0.0
2017-Jun-19 08:30N 42°21' W 071°03'0 0.0
2017-Jun-19 07:59N 42°21' W 071°03'0 0.0
2017-Jun-19 07:29N 42°21' W 071°03'0 0.0
2017-Jun-19 06:59N 42°21' W 071°03'0 0.0
2017-Jun-19 06:30N 42°21' W 071°03'0 0.0
2017-Jun-19 05:58N 42°21' W 071°03'0 0.0
2017-Jun-19 05:29N 42°21' W 071°03'0 0.0
2017-Jun-19 04:59N 42°21' W 071°03'0 0.0
2017-Jun-19 04:29N 42°21' W 071°03'0 0.0
2017-Jun-19 03:58N 42°21' W 071°03'0 0.0
2017-Jun-19 03:30N 42°21' W 071°03'0 0.0
2017-Jun-19 02:58N 42°21' W 071°03'0 0.0
2017-Jun-19 02:28N 42°21' W 071°03'0 0.0
2017-Jun-19 02:00N 42°21' W 071°03'0 0.0
2017-Jun-19 01:30N 42°21' W 071°03'0 0.0
2017-Jun-19 00:56N 42°21' W 071°03'0 0.0
2017-Jun-19 00:25N 42°21' W 071°03'0 0.0
2017-Jun-18 23:58N 42°21' W 071°03'0 0.0
2017-Jun-18 23:23N 42°21' W 071°03'0 0.0
2017-Jun-18 22:59N 42°21' W 071°03'0 0.0
2017-Jun-18 22:30N 42°21' W 071°03'0 0.0
2017-Jun-18 21:54N 42°21' W 071°03'0 0.0
2017-Jun-18 21:30N 42°21' W 071°03'0 0.0
2017-Jun-18 20:57N 42°21' W 071°03'0 0.0
2017-Jun-18 20:30N 42°21' W 071°03'0 0.0
2017-Jun-18 19:59N 42°21' W 071°03'0 0.0
2017-Jun-18 19:20N 42°21' W 071°03'0 0.0
2017-Jun-18 19:00N 42°21' W 071°03'0 0.0
2017-Jun-18 18:26N 42°21' W 071°03'0 0.0
2017-Jun-18 18:00N 42°21' W 071°03'0 0.0
2017-Jun-18 17:27N 42°21' W 071°03'0 0.0
2017-Jun-18 16:58N 42°21' W 071°03'0 0.0
2017-Jun-18 16:27N 42°21' W 071°03'0 0.0
2017-Jun-18 15:53N 42°21' W 071°03'0 0.0
2017-Jun-18 15:29N 42°21' W 071°03'0 0.0
2017-Jun-18 14:59N 42°21' W 071°03'0 0.0
2017-Jun-18 13:59N 42°21' W 071°03'0 0.0
2017-Jun-18 13:20N 42°21' W 071°03'0 0.0
2017-Jun-18 13:00N 42°21' W 071°03'0 0.0
2017-Jun-18 12:30N 42°21' W 071°03'0 0.0
2017-Jun-18 12:00N 42°21' W 071°03'0 0.0
2017-Jun-18 11:30N 42°21' W 071°03'0 0.0
2017-Jun-18 11:00N 42°21' W 071°03'0 0.0
2017-Jun-18 10:29N 42°21' W 071°03'0 0.0
2017-Jun-18 09:57N 42°21' W 071°03'0 0.0
2017-Jun-18 09:30N 42°21' W 071°03'0 0.0
2017-Jun-18 09:00N 42°21' W 071°03'0 0.0
2017-Jun-18 08:26N 42°21' W 071°03'0 0.0
2017-Jun-18 07:59N 42°21' W 071°03'0 0.0
2017-Jun-18 07:29N 42°21' W 071°03'0 0.0
2017-Jun-18 07:00N 42°21' W 071°03'0 0.0
2017-Jun-18 06:26N 42°21' W 071°03'0 0.0
2017-Jun-18 05:57N 42°21' W 071°03'0 0.0
2017-Jun-18 05:27N 42°21' W 071°03'0 0.0
2017-Jun-18 04:57N 42°21' W 071°03'0 0.0
2017-Jun-18 04:27N 42°21' W 071°03'0 0.0
2017-Jun-18 03:57N 42°21' W 071°03'0 0.0
2017-Jun-18 03:27N 42°21' W 071°03'0 0.0
2017-Jun-18 02:57N 42°21' W 071°03'0 0.0
2017-Jun-18 02:29N 42°21' W 071°03'0 0.0
2017-Jun-18 01:59N 42°21' W 071°03'0 0.0
2017-Jun-18 01:23N 42°21' W 071°03'0 0.0
2017-Jun-18 00:43N 42°21' W 071°03'0 0.1
2017-Jun-18 00:26N 42°21' W 071°03'0 0.0
2017-Jun-17 23:55N 42°21' W 071°03'0 0.0
2017-Jun-17 23:27N 42°21' W 071°03'0 0.0
2017-Jun-17 22:57N 42°21' W 071°03'0 0.0
2017-Jun-17 22:19N 42°21' W 071°03'0 0.0
2017-Jun-17 21:55N 42°21' W 071°03'0 0.0
2017-Jun-17 21:30N 42°21' W 071°03'0 0.0
2017-Jun-17 21:00N 42°21' W 071°03'0 0.0
2017-Jun-17 20:30N 42°21' W 071°03'0 0.0
2017-Jun-17 20:01N 42°21' W 071°03'0 0.0
2017-Jun-17 19:30N 42°21' W 071°03'0 0.0
2017-Jun-17 19:00N 42°21' W 071°03'0 0.0
2017-Jun-17 18:30N 42°21' W 071°03'0 0.0
2017-Jun-17 18:00N 42°21' W 071°03'0 0.0
2017-Jun-17 17:30N 42°21' W 071°03'0 0.1
2017-Jun-17 17:01N 42°21' W 071°03'1 1.6
2017-Jun-17 16:30N 42°22' W 071°03'2 4.1
2017-Jun-17 16:00N 42°21' W 071°01'3 5.4
2017-Jun-17 15:31N 42°20' W 070°57'3 5.6
2017-Jun-17 15:01N 42°22' W 070°55'2 3.3
2017-Jun-17 14:30N 42°24' W 070°53'1 1.5
2017-Jun-17 13:30N 42°25' W 070°53'0 0.1
2017-Jun-17 12:59N 42°25' W 070°53'0 0.0
2017-Jun-17 12:26N 42°25' W 070°53'0 0.0
2017-Jun-17 11:58N 42°25' W 070°53'0 0.0
2017-Jun-17 11:21N 42°25' W 070°53'0 0.0
2017-Jun-17 10:58N 42°25' W 070°53'0 0.0
2017-Jun-17 10:28N 42°25' W 070°53'0 0.0
2017-Jun-17 10:00N 42°25' W 070°53'0 0.0
2017-Jun-17 09:28N 42°25' W 070°53'0 0.0
2017-Jun-17 08:58N 42°25' W 070°53'0 0.0
2017-Jun-17 08:28N 42°25' W 070°53'0 0.0
2017-Jun-17 08:00N 42°25' W 070°53'0 0.0
2017-Jun-17 07:30N 42°25' W 070°53'0 0.0
2017-Jun-17 07:00N 42°25' W 070°53'0 0.0
2017-Jun-17 06:28N 42°25' W 070°53'0 0.0
2017-Jun-17 05:54N 42°25' W 070°53'0 0.0
2017-Jun-17 05:23N 42°25' W 070°53'0 0.0
2017-Jun-17 04:59N 42°25' W 070°53'0 0.0
2017-Jun-17 04:17N 42°25' W 070°53'0 0.0
2017-Jun-17 03:53N 42°25' W 070°53'0 0.0
2017-Jun-17 03:29N 42°25' W 070°53'0 0.0
2017-Jun-17 02:59N 42°25' W 070°53'0 0.0
2017-Jun-17 02:29N 42°25' W 070°53'0 0.0
2017-Jun-17 02:00N 42°25' W 070°53'0 0.0
2017-Jun-17 01:29N 42°25' W 070°53'0 0.0
2017-Jun-17 00:58N 42°25' W 070°53'0 0.0
2017-Jun-17 00:30N 42°25' W 070°53'0 0.0
2017-Jun-16 23:54N 42°25' W 070°53'0 0.0
2017-Jun-16 23:30N 42°25' W 070°53'0 0.0
2017-Jun-16 22:58N 42°25' W 070°53'0 0.0
2017-Jun-16 22:26N 42°25' W 070°53'0 0.0
2017-Jun-16 21:55N 42°25' W 070°53'0 0.0
2017-Jun-16 21:28N 42°25' W 070°53'0 0.0
2017-Jun-16 20:55N 42°25' W 070°53'0 0.0
2017-Jun-16 20:30N 42°25' W 070°53'0 0.0
2017-Jun-16 20:00N 42°25' W 070°53'0 0.0
2017-Jun-16 19:29N 42°25' W 070°53'0 0.0
2017-Jun-16 18:59N 42°25' W 070°53'0 0.0
2017-Jun-16 18:28N 42°25' W 070°53'0 0.0
2017-Jun-16 18:00N 42°25' W 070°53'0 0.0
2017-Jun-16 17:28N 42°25' W 070°53'0 0.0
2017-Jun-16 17:00N 42°25' W 070°53'0 0.0
2017-Jun-16 16:29N 42°25' W 070°53'0 0.0
2017-Jun-16 14:43N 42°25' W 070°53'0 0.0
2017-Jun-16 14:26N 42°25' W 070°53'0 0.0
2017-Jun-16 13:23N 42°25' W 070°53'0 0.0
2017-Jun-16 12:58N 42°25' W 070°53'0 0.0
2017-Jun-16 12:30N 42°25' W 070°53'0 0.0
2017-Jun-16 12:00N 42°25' W 070°53'0 0.0
2017-Jun-16 11:28N 42°25' W 070°53'0 0.0
2017-Jun-16 10:50N 42°25' W 070°53'0 0.0
2017-Jun-16 10:25N 42°25' W 070°53'0 0.0
2017-Jun-16 09:56N 42°25' W 070°53'0 0.0
2017-Jun-16 09:28N 42°25' W 070°53'0 0.0
2017-Jun-16 08:58N 42°25' W 070°53'0 0.0
2017-Jun-16 08:28N 42°25' W 070°53'0 0.0
2017-Jun-16 07:59N 42°25' W 070°53'0 0.0
2017-Jun-16 07:29N 42°25' W 070°53'0 0.0
2017-Jun-16 07:00N 42°25' W 070°53'0 0.0
2017-Jun-16 06:30N 42°25' W 070°53'0 0.0
2017-Jun-16 05:59N 42°25' W 070°53'0 0.0
2017-Jun-16 05:24N 42°25' W 070°53'0 0.0
2017-Jun-16 04:58N 42°25' W 070°53'0 0.0
2017-Jun-16 04:15N 42°25' W 070°53'0 0.0
2017-Jun-16 04:00N 42°25' W 070°53'0 0.0
2017-Jun-16 03:27N 42°25' W 070°53'0 0.0
2017-Jun-16 02:58N 42°25' W 070°53'0 0.1
2017-Jun-16 02:30N 42°25' W 070°52'1 1.4
2017-Jun-16 02:00N 42°25' W 070°52'2 4.8
2017-Jun-16 01:30N 42°23' W 070°49'3 6.0
2017-Jun-16 01:00N 42°21' W 070°47'3 6.3
2017-Jun-16 00:30N 42°19' W 070°43'4 7.4
2017-Jun-16 00:00N 42°16' W 070°40'3 6.6
2017-Jun-15 23:31N 42°14' W 070°36'3 6.6
2017-Jun-15 23:00N 42°12' W 070°33'3 6.1
2017-Jun-15 22:31N 42°10' W 070°30'3 6.3
2017-Jun-15 22:00N 42°08' W 070°27'7 5.6
2017-Jun-15 20:47N 42°04' W 070°19'1 3.7
2017-Jun-15 20:30N 42°03' W 070°18'10 1.1
2017-Jun-15 12:00N 42°00' W 070°06'   1016.5 5.4 18.011.217.5

Dump ship's entire track history